createdAt,value
2017-12-02T10:36:06.445Z,92.40
2017-12-02T10:38:45.475Z,91.30
2017-12-02T10:41:28.917Z,90.90
2017-12-02T10:44:13.626Z,91.10
2017-12-02T10:46:53.443Z,90.30
2017-12-02T10:49:45.632Z,90.20
2017-12-02T10:52:31.238Z,90.10
2017-12-02T10:55:11.495Z,90.60
2017-12-02T10:57:53.385Z,90.50
2017-12-02T11:00:30.044Z,90.50
2017-12-02T11:03:06.428Z,90.50
2017-12-02T11:05:43.215Z,90.40
2017-12-02T11:08:29.421Z,90.50
2017-12-02T11:11:08.214Z,89.60
2017-12-02T11:13:49.608Z,88.80
2017-12-02T11:16:31.394Z,90.40
2017-12-02T11:21:57.081Z,90.80
2017-12-02T11:24:39.842Z,90.80
2017-12-02T11:27:21.017Z,91.80
2017-12-02T11:30:02.000Z,91.30
2017-12-02T11:32:43.029Z,90.90
2017-12-02T11:38:15.243Z,91.30
2017-12-02T11:43:50.869Z,91.20
2017-12-02T11:46:30.801Z,91.90
2017-12-02T11:49:05.614Z,91.80
2017-12-02T11:51:56.712Z,91.70
2017-12-02T11:54:44.948Z,91.60
2017-12-02T11:57:25.825Z,92.80
2017-12-02T12:00:06.351Z,92.60
2017-12-02T12:02:43.162Z,92.60
2017-12-02T12:05:26.064Z,92.40
2017-12-02T12:08:02.443Z,92.30
2017-12-02T12:10:40.644Z,92.40
2017-12-02T12:13:20.518Z,92.40
2017-12-02T12:15:58.478Z,92.90
2017-12-02T12:18:34.373Z,93.10
2017-12-02T12:21:08.278Z,93.00
2017-12-02T12:23:43.143Z,93.10
2017-12-02T12:26:23.249Z,93.60
2017-12-02T12:28:58.367Z,92.50
2017-12-02T12:31:35.130Z,92.50
2017-12-02T12:34:19.049Z,93.00
2017-12-02T12:36:59.066Z,93.00
2017-12-02T12:39:32.864Z,93.50
2017-12-02T12:42:07.644Z,93.30
2017-12-02T12:44:46.620Z,92.90
2017-12-02T12:47:26.138Z,93.10
2017-12-02T12:50:00.851Z,93.40
2017-12-02T12:52:37.338Z,93.20
2017-12-02T12:58:35.661Z,93.10
2017-12-02T13:01:15.330Z,93.40
2017-12-02T13:03:50.310Z,93.50
2017-12-02T13:06:26.207Z,93.20
2017-12-02T13:09:09.608Z,93.20
2017-12-02T13:11:50.991Z,93.30
2017-12-02T13:14:30.483Z,93.30
2017-12-02T13:17:18.554Z,94.00
2017-12-02T13:20:01.666Z,93.90
2017-12-02T13:22:42.382Z,94.50
2017-12-02T13:28:16.448Z,94.20
2017-12-02T13:30:53.041Z,94.10
2017-12-02T13:58:31.608Z,94.50
2017-12-02T14:01:19.750Z,94.60
2017-12-02T14:03:59.879Z,95.20
2017-12-02T14:06:35.022Z,94.60
2017-12-02T14:09:14.869Z,94.40
2017-12-02T14:11:49.568Z,94.50
2017-12-02T14:14:25.867Z,94.90
2017-12-02T14:17:02.367Z,94.70
2017-12-02T14:19:35.972Z,94.50
2017-12-02T14:22:11.656Z,94.90
2017-12-02T14:24:48.924Z,94.50
2017-12-02T14:27:29.016Z,94.50
2017-12-02T14:30:12.089Z,94.50
2017-12-02T14:32:51.176Z,94.10
2017-12-02T14:35:25.755Z,94.10
2017-12-02T14:37:59.397Z,94.10
2017-12-02T14:40:37.516Z,94.70
2017-12-02T14:43:30.823Z,93.90
2017-12-02T14:46:09.907Z,93.80
2017-12-02T14:48:56.959Z,94.20
2017-12-02T14:54:21.867Z,94.00
2017-12-02T14:56:57.684Z,94.70
2017-12-02T14:59:35.370Z,94.00
2017-12-02T15:04:55.064Z,94.40
2017-12-02T15:07:33.032Z,94.40
2017-12-02T15:12:54.656Z,94.30
2017-12-02T15:15:34.294Z,94.10
2017-12-02T15:18:08.539Z,94.10
2017-12-02T15:20:45.696Z,94.20
2017-12-02T15:23:20.352Z,94.50
2017-12-02T15:26:16.669Z,94.40
2017-12-02T15:28:55.595Z,94.30
2017-12-02T15:31:34.741Z,94.90
2017-12-02T15:34:09.335Z,94.50
2017-12-02T15:39:45.675Z,94.00
2017-12-02T15:42:31.197Z,94.00
2017-12-02T15:45:16.738Z,94.30
2017-12-02T15:47:56.718Z,95.30
2017-12-02T15:50:45.053Z,94.60
2017-12-02T15:53:20.628Z,94.50
2017-12-02T15:56:05.156Z,94.40
2017-12-02T15:58:47.997Z,94.90
2017-12-02T16:01:35.182Z,94.50
2017-12-02T16:04:14.489Z,95.40
2017-12-02T16:06:52.768Z,95.50
2017-12-02T16:12:34.382Z,95.10
2017-12-02T16:15:13.152Z,95.20
2017-12-02T16:17:47.634Z,94.80
2017-12-02T16:20:30.311Z,94.30
2017-12-02T16:23:07.577Z,94.20
2017-12-02T16:25:42.628Z,94.60
2017-12-02T16:31:09.937Z,94.30
2017-12-02T16:33:51.134Z,94.40
2017-12-02T16:36:40.530Z,94.50
2017-12-02T16:39:21.167Z,94.20
2017-12-02T16:41:57.863Z,94.50
2017-12-02T16:44:34.104Z,94.00
2017-12-02T16:47:16.914Z,94.60
2017-12-02T16:50:00.754Z,94.10
2017-12-02T16:52:40.236Z,94.30
2017-12-02T16:55:32.964Z,94.10
2017-12-02T17:00:57.519Z,94.60
2017-12-02T17:03:34.931Z,94.60
2017-12-02T17:06:14.972Z,94.60
2017-12-02T17:08:53.995Z,93.60
2017-12-02T17:11:30.937Z,94.00
2017-12-02T17:14:11.215Z,94.30
2017-12-02T17:17:06.344Z,94.40
2017-12-02T17:19:41.319Z,94.10
2017-12-02T17:22:17.912Z,93.90
2017-12-02T17:24:57.558Z,93.90
2017-12-02T17:27:34.859Z,93.50
2017-12-02T17:30:14.610Z,93.10
2017-12-02T17:32:56.607Z,93.50
2017-12-02T17:35:33.388Z,93.90
2017-12-02T17:38:12.687Z,94.00
2017-12-02T17:40:53.689Z,93.90
2017-12-02T17:43:36.241Z,93.60
2017-12-02T17:46:21.720Z,93.00
2017-12-02T17:49:03.873Z,93.60
2017-12-02T17:51:44.625Z,93.50
2017-12-02T17:54:34.067Z,93.40
2017-12-02T17:57:10.532Z,93.20
2017-12-02T17:59:47.386Z,93.30
2017-12-02T18:02:34.448Z,93.30
2017-12-02T18:05:14.216Z,93.50
2017-12-02T18:07:59.549Z,93.50
2017-12-02T18:10:42.793Z,93.50
2017-12-02T18:13:23.640Z,93.60
2017-12-02T18:16:02.805Z,93.30
2017-12-02T18:21:39.843Z,93.00
2017-12-02T18:27:07.585Z,92.30
2017-12-02T18:29:49.361Z,92.20
2017-12-02T18:32:27.580Z,92.80
2017-12-02T18:35:13.233Z,92.70
2017-12-02T18:37:51.812Z,92.80
2017-12-02T18:40:29.842Z,91.90
2017-12-02T18:43:11.512Z,92.20
2017-12-02T18:45:47.722Z,92.00
2017-12-02T18:48:24.713Z,91.70
2017-12-02T18:51:09.840Z,91.90
2017-12-02T18:53:51.730Z,91.80
2017-12-02T18:56:35.403Z,91.70
2017-12-02T18:59:17.392Z,92.60
2017-12-02T19:01:58.729Z,92.60
2017-12-02T19:04:36.352Z,91.90
2017-12-02T19:07:20.321Z,92.20
2017-12-02T19:10:05.084Z,91.00
2017-12-02T19:12:48.617Z,90.60
2017-12-02T19:15:33.426Z,90.80
2017-12-02T19:18:10.631Z,89.90
2017-12-02T19:20:45.272Z,90.40
2017-12-02T19:23:26.821Z,90.50
2017-12-02T19:26:06.030Z,90.50
2017-12-02T19:28:48.604Z,90.70
2017-12-02T19:31:33.952Z,90.50
2017-12-02T19:34:14.384Z,90.50
2017-12-02T19:36:54.950Z,90.80
2017-12-02T19:39:32.450Z,90.80
2017-12-02T19:42:09.632Z,90.60
2017-12-02T19:44:47.269Z,91.00
2017-12-02T19:47:24.154Z,90.50
2017-12-02T19:50:10.618Z,90.50
2017-12-02T19:52:46.799Z,90.50
2017-12-02T19:55:21.785Z,90.20
2017-12-02T19:57:57.647Z,88.40
2017-12-02T20:00:43.110Z,89.50
2017-12-02T20:03:17.924Z,90.10
2017-12-02T20:05:56.944Z,90.30
2017-12-02T20:08:36.220Z,89.60
2017-12-02T20:11:20.113Z,88.70
2017-12-02T20:13:58.895Z,89.20
2017-12-02T20:16:39.342Z,89.90
2017-12-02T20:19:17.116Z,89.80
2017-12-02T20:21:56.398Z,90.00
2017-12-02T20:24:32.160Z,90.20
2017-12-02T20:27:08.386Z,90.40
2017-12-02T20:29:48.339Z,90.60
2017-12-02T20:32:26.042Z,90.50
2017-12-02T20:35:17.649Z,90.80
2017-12-02T20:37:51.628Z,90.30
2017-12-02T20:40:30.889Z,90.40
2017-12-02T20:43:06.766Z,90.30
2017-12-02T20:45:48.608Z,90.40
2017-12-02T20:48:23.796Z,90.20
2017-12-02T20:51:01.618Z,90.20
2017-12-02T20:53:38.090Z,90.50
2017-12-02T20:59:06.765Z,90.70
2017-12-02T21:01:46.703Z,91.50
2017-12-02T21:04:24.731Z,91.70
2017-12-02T21:07:02.643Z,91.60
2017-12-02T21:09:40.208Z,91.40
2017-12-02T21:12:22.446Z,91.30
2017-12-02T21:14:58.632Z,91.20
2017-12-02T21:17:35.452Z,91.30
2017-12-02T21:20:09.858Z,91.40
2017-12-02T21:23:03.246Z,91.30
2017-12-02T21:25:40.490Z,91.30
2017-12-02T21:28:19.788Z,91.10
2017-12-02T21:31:12.141Z,91.20
2017-12-02T21:33:48.321Z,91.50
2017-12-02T21:36:32.992Z,91.10
2017-12-02T21:39:11.666Z,91.40
2017-12-02T21:41:53.830Z,91.40
2017-12-02T21:44:30.539Z,91.40
2017-12-02T21:47:09.055Z,91.20
2017-12-02T21:49:49.640Z,91.00
2017-12-02T21:52:26.129Z,91.20
2017-12-02T21:55:03.607Z,91.20
2017-12-02T21:57:42.911Z,90.70
2017-12-02T22:03:10.798Z,90.50
2017-12-02T22:05:45.556Z,90.40
2017-12-02T22:08:21.774Z,90.50
2017-12-02T22:13:48.714Z,90.70
2017-12-02T22:16:27.476Z,91.00
2017-12-02T22:19:04.544Z,90.80
2017-12-02T22:21:44.236Z,90.80
2017-12-02T22:24:18.988Z,90.50
2017-12-02T22:26:59.490Z,90.70
2017-12-02T22:29:34.201Z,91.00
2017-12-02T22:32:11.314Z,91.20
2017-12-02T22:34:46.253Z,91.10
2017-12-02T22:37:22.892Z,91.20
2017-12-02T22:40:08.134Z,91.30
2017-12-02T22:42:49.462Z,91.60
2017-12-02T22:48:15.469Z,92.10
2017-12-02T22:53:44.146Z,92.50
2017-12-02T22:56:21.185Z,92.50
2017-12-02T22:58:58.071Z,92.80
2017-12-02T23:01:36.409Z,93.10
2017-12-02T23:04:13.719Z,93.00
2017-12-02T23:06:47.820Z,93.50
2017-12-02T23:09:22.716Z,93.90
2017-12-02T23:11:59.598Z,93.90
2017-12-02T23:17:27.554Z,94.00
2017-12-02T23:20:04.697Z,93.90
2017-12-02T23:25:22.277Z,93.80
2017-12-02T23:28:01.620Z,93.90
2017-12-02T23:30:39.792Z,93.80
2017-12-02T23:33:20.296Z,93.60
2017-12-02T23:35:54.762Z,93.70
2017-12-02T23:38:35.406Z,93.80
2017-12-02T23:41:15.527Z,93.70
2017-12-02T23:43:56.353Z,93.50
2017-12-02T23:46:30.938Z,94.20
2017-12-02T23:49:07.827Z,94.20
2017-12-02T23:51:41.817Z,94.10
2017-12-02T23:54:18.879Z,94.20
2017-12-02T23:56:57.077Z,94.00
2017-12-02T23:59:34.282Z,93.90
